Phillips, Wisconsin
Current Conditions -  °F | °C
As of 5:35 AM on Friday 31 Oct 2014 (Local Time) from KPBH Reporting Station
Scattered Clouds Scattered Clouds  
Wind Chill: 17°   Ceiling: Unl
Heat Index: 27°   Visibility: 10mi
Dew Point: 22°   Wind: 10mph
Humidity: 83%   Direction: 350°N
Pressure: 30.32"   Gusts: 20mph
Location:  45.69°N, 90.41°W
Report Text: KPBH 311035Z AUTO 35009G17KT 10SM SCT018 SCT026 M03/M05 A3032 RMK AO2 T10281054
Loading
Personal Weather Stations






























Interactive Weather Map
Tropical Storm Tracking
New forecast layout! Learn more

10-Day Weather Forecast

Advertisements
Track Severe Weather on mobile